Time;durP1;ratioP1;P1;durP2;ratioP2;P2;SDS_P1;SDS_P2;PMS_P1;PMS_P2;Temp;Humidity;BMP_temperature;BMP_pressure;BME280_temperature;BME280_humidity;BME280_pressure;Samples;Min_cycle;Max_cycle;Signal;HPM_P1;HPM_P2
2023/04/13 00:00:15;;;;;;;0.00;0.00;;;7.80;76.50;;;;;;4951209;28;20184;-68
2023/04/13 00:02:42;;;;;;;0.00;0.00;;;7.90;76.70;;;;;;4933854;28;20047;-68
2023/04/13 00:05:09;;;;;;;0.47;0.47;;;7.90;77.30;;;;;;4951299;28;20039;-67
2023/04/13 00:07:38;;;;;;;0.00;0.00;;;7.90;78.60;;;;;;4969659;28;20043;-68
2023/04/13 00:10:08;;;;;;;0.10;0.10;;;7.90;79.40;;;;;;4970283;28;20050;-68
2023/04/13 00:12:35;;;;;;;0.00;0.00;;;7.90;78.80;;;;;;4973642;28;20043;-66
2023/04/13 00:15:02;;;;;;;0.05;0.05;;;7.80;79.20;;;;;;4973417;28;20051;-67
2023/04/13 00:17:28;;;;;;;0.00;0.00;;;7.70;80.60;;;;;;4958216;28;20198;-66
2023/04/13 00:19:56;;;;;;;0.00;0.00;;;7.60;81.10;;;;;;4955335;28;20540;-67
2023/04/13 00:22:29;;;;;;;0.00;0.00;;;7.60;81.30;;;;;;4954136;28;20047;-66
2023/04/13 00:24:54;;;;;;;0.00;0.00;;;7.40;81.00;;;;;;4920797;28;20130;-66
2023/04/13 00:27:26;;;;;;;0.00;0.00;;;7.40;81.90;;;;;;4953872;28;20122;-66
2023/04/13 00:29:55;;;;;;;0.00;0.00;;;7.30;83.30;;;;;;4967450;28;20097;-66
2023/04/13 00:32:21;;;;;;;0.00;0.00;;;7.20;84.00;;;;;;4973051;28;20038;-66
2023/04/13 00:34:47;;;;;;;0.00;0.00;;;7.10;84.60;;;;;;4970064;28;20097;-66
2023/04/13 00:37:13;;;;;;;1.67;1.55;;;7.20;84.80;;;;;;4948339;28;20054;-66
2023/04/13 00:39:39;;;;;;;0.00;0.00;;;7.10;85.40;;;;;;4969418;28;20058;-66
2023/04/13 00:42:07;;;;;;;0.08;0.08;;;7.10;85.80;;;;;;4973185;28;20047;-66
2023/04/13 00:44:33;;;;;;;0.00;0.00;;;7.10;85.70;;;;;;4971061;28;20712;-66
2023/04/13 00:47:00;;;;;;;0.00;0.00;;;7.00;86.30;;;;;;4956237;28;20145;-66
2023/04/13 00:49:27;;;;;;;0.00;0.00;;;7.00;86.30;;;;;;4959123;28;20126;-66
2023/04/13 00:51:52;;;;;;;0.00;0.00;;;7.00;86.20;;;;;;4953639;28;20114;-66
2023/04/13 00:54:18;;;;;;;0.00;0.00;;;6.90;86.50;;;;;;4952082;28;20146;-67
2023/04/13 00:56:44;;;;;;;0.00;0.00;;;6.90;86.70;;;;;;4953296;28;20043;-66
2023/04/13 00:59:11;;;;;;;0.00;0.00;;;6.90;86.80;;;;;;4956172;28;20117;-66
2023/04/13 01:01:44;;;;;;;0.00;0.00;;;6.90;86.80;;;;;;4936447;29;20430;-66
2023/04/13 01:04:13;;;;;;;0.00;0.00;;;6.80;87.10;;;;;;4952967;28;20047;-67
2023/04/13 01:07:11;;;;;;;0.00;0.00;;;6.90;87.00;;;;;;4956557;28;20048;-66
2023/04/13 01:09:36;;;;;;;0.00;0.00;;;6.90;87.30;;;;;;4889467;28;20062;-66
2023/04/13 01:12:12;;;;;;;0.00;0.00;;;6.90;87.30;;;;;;4949790;28;20047;-66
2023/04/13 01:14:56;;;;;;;0.00;0.00;;;6.90;87.50;;;;;;4972079;28;20074;-66
2023/04/13 01:17:26;;;;;;;0.00;0.00;;;6.90;87.60;;;;;;4963607;28;20046;-66
2023/04/13 01:19:58;;;;;;;0.00;0.00;;;6.90;87.80;;;;;;4953309;28;20043;-66
2023/04/13 01:22:26;;;;;;;;;;;6.90;87.90;;;;;;4952780;28;20098;-67
2023/04/13 01:25:15;;;;;;;0.00;0.00;;;6.90;87.80;;;;;;4953042;28;19922;-65
2023/04/13 01:27:46;;;;;;;0.00;0.00;;;6.90;88.00;;;;;;4934886;28;20082;-67
2023/04/13 01:30:15;;;;;;;0.00;0.00;;;6.90;87.80;;;;;;4967161;28;20555;-66
2023/04/13 01:32:42;;;;;;;0.00;0.00;;;6.90;87.80;;;;;;4936808;28;20051;-65
2023/04/13 01:35:09;;;;;;;0.00;0.00;;;7.00;87.70;;;;;;4971807;28;20051;-67
2023/04/13 01:37:37;;;;;;;0.00;0.00;;;6.90;87.80;;;;;;4954269;28;20054;-66
2023/04/13 01:40:13;;;;;;;0.00;0.00;;;6.90;87.90;;;;;;4967851;28;20047;-66
2023/04/13 01:42:39;;;;;;;0.00;0.00;;;6.90;87.80;;;;;;4952264;28;20098;-66
2023/04/13 01:45:16;;;;;;;0.00;0.00;;;7.00;87.60;;;;;;4952554;28;20440;-66
2023/04/13 01:47:50;;;;;;;0.00;0.00;;;7.00;87.60;;;;;;4963751;28;20058;-66
2023/04/13 01:50:25;;;;;;;0.00;0.00;;;7.00;87.50;;;;;;4956869;28;20071;-66
2023/04/13 01:52:53;;;;;;;0.00;0.00;;;7.00;87.70;;;;;;4967372;28;20043;-66
2023/04/13 01:55:22;;;;;;;0.00;0.00;;;7.00;87.80;;;;;;4971493;28;20499;-66
2023/04/13 01:57:50;;;;;;;0.00;0.00;;;7.00;87.80;;;;;;4971882;28;20512;-65
2023/04/13 02:00:17;;;;;;;0.08;0.08;;;7.00;87.80;;;;;;4956149;28;20138;-65
2023/04/13 02:02:43;;;;;;;0.00;0.00;;;7.00;88.00;;;;;;4952100;28;20066;-67
2023/04/13 02:05:09;;;;;;;0.00;0.00;;;7.00;88.00;;;;;;4935240;29;20397;-66
2023/04/13 02:07:37;;;;;;;0.00;0.00;;;7.00;88.00;;;;;;4952685;28;20050;-66
2023/04/13 02:10:05;;;;;;;0.00;0.00;;;7.00;88.00;;;;;;4964652;28;20046;-66
2023/04/13 02:12:32;;;;;;;0.00;0.00;;;7.10;87.70;;;;;;4963142;28;20043;-66
2023/04/13 02:14:58;;;;;;;0.00;0.00;;;7.10;87.50;;;;;;4951098;29;20059;-66
2023/04/13 02:17:24;;;;;;;0.00;0.00;;;7.00;87.30;;;;;;4959868;28;20046;-66
2023/04/13 02:19:50;;;;;;;0.20;0.20;;;7.10;87.20;;;;;;4964719;28;20046;-66
2023/04/13 02:22:15;;;;;;;0.00;0.00;;;7.10;87.30;;;;;;4971414;28;20039;-67
2023/04/13 02:24:41;;;;;;;0.00;0.00;;;7.10;87.20;;;;;;4971176;28;20046;-67
2023/04/13 02:27:06;;;;;;;0.00;0.00;;;7.10;87.20;;;;;;4970641;28;20074;-66
2023/04/13 02:29:33;;;;;;;0.00;0.00;;;7.10;87.20;;;;;;4953701;28;20050;-66
2023/04/13 02:31:58;;;;;;;0.00;0.00;;;7.10;87.10;;;;;;4970213;28;20047;-67
2023/04/13 02:34:25;;;;;;;0.00;0.00;;;7.10;87.00;;;;;;4971303;28;20046;-66
2023/04/13 02:36:50;;;;;;;0.00;0.00;;;7.20;87.00;;;;;;4949222;28;20589;-66
2023/04/13 02:39:16;;;;;;;0.00;0.00;;;7.10;86.70;;;;;;4966684;28;20043;-66
2023/04/13 02:41:41;;;;;;;0.00;0.00;;;7.20;86.70;;;;;;4970699;28;20050;-67
2023/04/13 02:44:07;;;;;;;0.00;0.00;;;7.10;86.60;;;;;;4969685;28;20057;-66
2023/04/13 02:46:33;;;;;;;0.00;0.00;;;7.10;86.40;;;;;;4969439;28;20488;-66
2023/04/13 02:48:58;;;;;;;0.00;0.00;;;7.20;86.20;;;;;;4961611;28;20389;-67
2023/04/13 02:51:24;;;;;;;0.00;0.00;;;7.20;86.20;;;;;;4970408;28;20053;-66
2023/04/13 02:53:51;;;;;;;0.00;0.00;;;7.20;86.50;;;;;;4970716;28;20046;-66
2023/04/13 02:56:16;;;;;;;0.00;0.00;;;7.20;86.80;;;;;;4966237;28;20075;-68
2023/04/13 02:58:43;;;;;;;0.00;0.00;;;7.20;86.30;;;;;;4960597;28;20086;-67
2023/04/13 03:01:09;;;;;;;0.10;0.10;;;7.20;86.30;;;;;;4962464;28;20508;-66
2023/04/13 03:03:35;;;;;;;0.00;0.00;;;7.20;86.20;;;;;;4953216;28;20039;-66
2023/04/13 03:06:01;;;;;;;0.00;0.00;;;7.20;86.30;;;;;;4966016;28;20117;-67
2023/04/13 03:08:26;;;;;;;0.00;0.00;;;7.10;86.70;;;;;;4956556;28;20047;-66
2023/04/13 03:10:53;;;;;;;0.00;0.00;;;7.20;86.90;;;;;;4951200;28;20121;-66
2023/04/13 03:13:19;;;;;;;0.00;0.00;;;7.10;87.30;;;;;;4951236;28;20082;-66
2023/04/13 03:15:45;;;;;;;0.00;0.00;;;7.20;87.40;;;;;;4954756;28;20043;-66
2023/04/13 03:18:12;;;;;;;0.00;0.00;;;7.20;87.40;;;;;;4957671;28;20496;-67
2023/04/13 03:20:37;;;;;;;0.00;0.00;;;7.20;87.50;;;;;;4953892;28;20575;-66
2023/04/13 03:23:03;;;;;;;0.00;0.00;;;7.20;87.20;;;;;;4951278;28;20049;-66
2023/04/13 03:25:29;;;;;;;0.00;0.00;;;7.10;87.30;;;;;;4933976;28;20138;-67
2023/04/13 03:27:55;;;;;;;0.00;0.00;;;7.10;87.30;;;;;;4952528;28;20553;-66
2023/04/13 03:30:21;;;;;;;0.00;0.00;;;7.10;87.20;;;;;;4970171;28;20090;-66
2023/04/13 03:32:46;;;;;;;0.00;0.00;;;7.10;87.00;;;;;;4969280;28;20078;-66
2023/04/13 03:35:12;;;;;;;0.00;0.00;;;7.10;86.60;;;;;;4970606;28;20105;-66
2023/04/13 03:37:42;;;;;;;0.00;0.00;;;7.10;86.50;;;;;;4968658;28;20833;-66
2023/04/13 03:40:11;;;;;;;0.32;0.32;;;7.00;86.40;;;;;;4950820;28;20035;-67
2023/04/13 03:42:37;;;;;;;0.10;0.10;;;7.00;86.70;;;;;;4952139;28;20043;-67
2023/04/13 03:45:03;;;;;;;0.00;0.00;;;6.90;86.50;;;;;;4961841;28;20043;-67
2023/04/13 03:47:29;;;;;;;0.00;0.00;;;6.90;86.40;;;;;;4954279;28;20050;-66
2023/04/13 03:49:55;;;;;;;0.00;0.00;;;7.00;86.70;;;;;;4954451;28;20078;-67
2023/04/13 03:52:21;;;;;;;0.63;0.63;;;6.90;86.90;;;;;;4961624;28;20054;-67
2023/04/13 03:54:46;;;;;;;0.00;0.00;;;6.90;86.90;;;;;;4968496;28;20532;-67
2023/04/13 03:57:12;;;;;;;0.00;0.00;;;6.90;86.70;;;;;;4970340;28;20043;-67
2023/04/13 03:59:37;;;;;;;0.00;0.00;;;6.90;86.60;;;;;;4973046;28;20058;-66
2023/04/13 04:02:03;;;;;;;0.00;0.00;;;6.80;86.50;;;;;;4957514;28;20051;-68
2023/04/13 04:04:29;;;;;;;0.08;0.08;;;6.80;86.60;;;;;;4954489;28;20058;-66
2023/04/13 04:06:56;;;;;;;0.00;0.00;;;6.80;86.60;;;;;;4954285;28;20047;-66
2023/04/13 04:09:22;;;;;;;0.00;0.00;;;6.80;86.60;;;;;;4955187;28;20054;-66
2023/04/13 04:11:47;;;;;;;0.00;0.00;;;6.80;86.80;;;;;;4953857;28;20051;-67
2023/04/13 04:14:13;;;;;;;0.00;0.00;;;6.70;87.00;;;;;;4954373;28;20110;-67
2023/04/13 04:16:39;;;;;;;0.00;0.00;;;6.70;87.10;;;;;;4936707;28;20079;-66
2023/04/13 04:19:05;;;;;;;0.00;0.00;;;6.80;87.30;;;;;;4964400;28;20043;-66
2023/04/13 04:21:33;;;;;;;0.00;0.00;;;6.80;87.20;;;;;;4953205;28;20101;-67
2023/04/13 04:24:05;;;;;;;0.00;0.00;;;6.80;87.30;;;;;;4973008;28;20043;-68
2023/04/13 04:26:31;;;;;;;0.52;0.52;;;6.80;87.30;;;;;;4956185;28;20051;-67
2023/04/13 04:29:02;;;;;;;0.00;0.00;;;6.80;87.40;;;;;;4970160;28;20511;-67
2023/04/13 04:31:34;;;;;;;0.10;0.10;;;6.80;87.30;;;;;;4964612;28;20046;-67
2023/04/13 04:34:01;;;;;;;0.00;0.00;;;6.80;87.20;;;;;;4953944;28;20051;-67
2023/04/13 04:36:26;;;;;;;0.00;0.00;;;6.80;87.30;;;;;;4936732;28;20139;-66
2023/04/13 04:38:56;;;;;;;0.00;0.00;;;6.80;87.30;;;;;;4952188;28;20142;-68
2023/04/13 04:41:23;;;;;;;0.00;0.00;;;6.80;87.00;;;;;;4930762;28;20043;-67
2023/04/13 04:43:49;;;;;;;0.00;0.00;;;6.80;87.20;;;;;;4972616;28;20404;-67
2023/04/13 04:46:15;;;;;;;0.00;0.00;;;6.80;87.30;;;;;;4955781;28;20046;-66
2023/04/13 04:48:41;;;;;;;0.00;0.00;;;6.80;87.00;;;;;;4965318;28;20039;-66
2023/04/13 04:51:10;;;;;;;0.00;0.00;;;6.80;87.30;;;;;;4952851;28;20580;-66
2023/04/13 04:53:35;;;;;;;0.00;0.00;;;6.90;87.40;;;;;;4970395;28;20533;-66
2023/04/13 04:56:01;;;;;;;0.00;0.00;;;6.80;87.40;;;;;;4972437;28;20038;-66
2023/04/13 04:58:27;;;;;;;0.00;0.00;;;6.80;87.30;;;;;;4971027;28;20492;-66
2023/04/13 05:00:52;;;;;;;0.00;0.00;;;6.80;87.40;;;;;;4955256;28;20050;-66
2023/04/13 05:03:19;;;;;;;0.00;0.00;;;6.80;87.40;;;;;;4972477;28;20053;-66
2023/04/13 05:05:45;;;;;;;0.00;0.00;;;6.80;87.30;;;;;;4954964;28;20058;-66
2023/04/13 05:08:10;;;;;;;0.00;0.00;;;6.90;87.30;;;;;;4970048;28;20102;-66
2023/04/13 05:10:44;;;;;;;0.00;0.00;;;6.80;87.40;;;;;;4960588;28;20074;-66
2023/04/13 05:13:09;;;;;;;0.00;0.00;;;6.90;87.50;;;;;;4958797;28;20722;-67
2023/04/13 05:15:35;;;;;;;0.00;0.00;;;7.00;87.40;;;;;;4956676;28;20038;-66
2023/04/13 05:18:01;;;;;;;0.00;0.00;;;7.00;87.40;;;;;;4969975;28;20050;-66
2023/04/13 05:20:26;;;;;;;0.00;0.00;;;7.10;87.50;;;;;;4968509;28;20830;-66
2023/04/13 05:22:52;;;;;;;0.00;0.00;;;7.10;87.90;;;;;;4961014;28;20062;-66
2023/04/13 05:25:18;;;;;;;0.47;0.47;;;7.20;87.90;;;;;;4920723;28;20102;-66
2023/04/13 05:27:44;;;;;;;0.00;0.00;;;7.20;87.70;;;;;;4960133;28;20076;-67
2023/04/13 05:30:10;;;;;;;0.00;0.00;;;7.30;87.60;;;;;;4947135;28;20075;-66
2023/04/13 05:32:36;;;;;;;0.00;0.00;;;7.30;87.60;;;;;;4963128;28;20086;-67
2023/04/13 05:35:03;;;;;;;0.00;0.00;;;7.40;87.30;;;;;;4968591;28;20047;-67
2023/04/13 05:37:28;;;;;;;0.00;0.00;;;7.40;87.10;;;;;;4955321;28;20416;-67
2023/04/13 05:39:54;;;;;;;0.00;0.00;;;7.40;87.40;;;;;;4958416;28;20098;-66
2023/04/13 05:42:20;;;;;;;0.00;0.00;;;7.50;87.40;;;;;;4967490;28;20059;-68
2023/04/13 05:44:45;;;;;;;0.00;0.00;;;7.40;87.10;;;;;;4953058;28;20508;-67
2023/04/13 05:47:11;;;;;;;0.00;0.00;;;7.50;86.70;;;;;;4943931;28;20504;-67
2023/04/13 05:49:37;;;;;;;0.00;0.00;;;7.50;86.80;;;;;;4965126;28;20114;-67
2023/04/13 05:52:03;;;;;;;4.90;1.98;;;7.50;86.70;;;;;;4962323;28;20130;-67
2023/04/13 05:54:28;;;;;;;2.17;1.95;;;7.40;86.80;;;;;;4969397;28;20503;-67
2023/04/13 05:56:55;;;;;;;0.47;0.47;;;7.40;86.80;;;;;;4954603;28;20047;-67
2023/04/13 05:59:21;;;;;;;0.00;0.00;;;7.40;86.60;;;;;;4954024;28;20410;-68
2023/04/13 06:01:48;;;;;;;0.00;0.00;;;7.40;86.60;;;;;;4959055;28;20062;-67
2023/04/13 06:04:14;;;;;;;0.00;0.00;;;7.40;86.40;;;;;;4970071;28;20050;-66
2023/04/13 06:06:40;;;;;;;0.00;0.00;;;7.40;86.30;;;;;;4963573;28;20479;-67
2023/04/13 06:09:07;;;;;;;0.00;0.00;;;7.40;86.30;;;;;;4957597;28;20046;-67
2023/04/13 06:11:33;;;;;;;0.00;0.00;;;7.50;86.40;;;;;;4965325;28;20085;-66
2023/04/13 06:13:58;;;;;;;0.00;0.00;;;7.50;86.40;;;;;;4966232;28;20087;-67
2023/04/13 06:16:24;;;;;;;0.00;0.00;;;7.60;86.50;;;;;;4952666;28;20652;-70
2023/04/13 06:18:50;;;;;;;0.00;0.00;;;7.70;86.30;;;;;;4961719;28;20131;-66
2023/04/13 06:21:15;;;;;;;0.00;0.00;;;7.70;86.40;;;;;;4952234;28;20089;-68
2023/04/13 06:23:41;;;;;;;0.10;0.10;;;7.80;86.20;;;;;;4964314;28;20576;-66
2023/04/13 06:26:07;;;;;;;0.00;0.00;;;7.80;86.10;;;;;;4959351;28;20056;-66
2023/04/13 06:28:33;;;;;;;0.00;0.00;;;7.80;86.10;;;;;;4962658;28;20043;-66
2023/04/13 06:30:58;;;;;;;0.00;0.00;;;7.90;86.00;;;;;;4971109;28;20047;-66
2023/04/13 06:33:25;;;;;;;0.00;0.00;;;8.00;85.40;;;;;;4964111;28;20031;-65
2023/04/13 06:35:51;;;;;;;0.00;0.00;;;8.10;85.30;;;;;;4964389;28;20588;-64
2023/04/13 06:38:16;;;;;;;0.03;0.03;;;8.10;85.10;;;;;;4931240;28;20043;-65
2023/04/13 06:40:42;;;;;;;1.42;1.15;;;8.20;85.20;;;;;;4967913;28;20129;-65
2023/04/13 06:43:07;;;;;;;0.00;0.00;;;8.20;85.10;;;;;;4967828;28;20035;-64
2023/04/13 06:45:33;;;;;;;2.17;1.85;;;8.30;84.80;;;;;;4968885;28;20069;-64
2023/04/13 06:47:59;;;;;;;0.00;0.00;;;8.30;84.60;;;;;;4967582;28;20385;-65
2023/04/13 06:50:25;;;;;;;0.00;0.00;;;8.20;84.20;;;;;;4967420;28;20050;-64
2023/04/13 06:52:50;;;;;;;0.00;0.00;;;8.20;82.60;;;;;;4967617;28;20047;-64
2023/04/13 06:55:16;;;;;;;0.00;0.00;;;8.30;82.90;;;;;;4970478;28;20069;-65
2023/04/13 06:57:43;;;;;;;0.00;0.00;;;8.40;82.90;;;;;;4967521;28;20146;-64
2023/04/13 07:00:09;;;;;;;0.00;0.00;;;8.40;82.30;;;;;;4963591;28;20055;-64
2023/04/13 07:02:35;;;;;;;0.00;0.00;;;8.30;82.50;;;;;;4968008;28;20051;-64
2023/04/13 07:05:01;;;;;;;0.00;0.00;;;8.40;82.30;;;;;;4966959;28;20042;-64
2023/04/13 07:07:27;;;;;;;0.47;0.47;;;8.60;82.30;;;;;;4966702;28;20047;-64
2023/04/13 07:09:52;;;;;;;0.15;0.15;;;8.60;81.10;;;;;;4966020;28;20046;-65
2023/04/13 07:12:18;;;;;;;0.10;0.10;;;8.50;80.10;;;;;;4967122;28;20043;-64
2023/04/13 07:14:47;;;;;;;0.00;0.00;;;8.60;80.90;;;;;;4968608;28;20870;-64
2023/04/13 07:17:13;;;;;;;0.00;0.00;;;8.50;80.90;;;;;;4967067;28;20476;-64
2023/04/13 07:19:44;;;;;;;0.00;0.00;;;8.50;81.00;;;;;;4968181;28;20046;-64
2023/04/13 07:22:10;;;;;;;0.10;0.10;;;8.50;81.20;;;;;;4970766;28;20416;-65
2023/04/13 07:24:36;;;;;;;7.75;1.25;;;8.60;81.20;;;;;;4969881;28;20047;-64
2023/04/13 07:27:02;;;;;;;0.00;0.00;;;8.50;81.10;;;;;;4972240;28;20039;-65
2023/04/13 07:29:27;;;;;;;0.20;0.20;;;8.60;81.10;;;;;;4972410;28;20074;-64
2023/04/13 07:31:58;;;;;;;0.00;0.00;;;8.60;81.10;;;;;;4968454;28;20074;-64
2023/04/13 07:34:25;;;;;;;0.10;0.10;;;8.60;80.80;;;;;;4971012;28;20039;-63
2023/04/13 07:36:50;;;;;;;0.00;0.00;;;8.60;80.90;;;;;;4971147;28;20333;-63
2023/04/13 07:39:16;;;;;;;0.00;0.00;;;8.60;81.30;;;;;;4970721;28;20134;-63
2023/04/13 07:41:41;;;;;;;0.00;0.00;;;8.60;81.20;;;;;;4976709;28;20055;-62
2023/04/13 07:44:07;;;;;;;0.00;0.00;;;8.70;80.70;;;;;;4971179;28;20047;-62
2023/04/13 07:46:33;;;;;;;0.10;0.10;;;8.70;80.50;;;;;;4971951;28;20129;-62
2023/04/13 07:48:59;;;;;;;0.00;0.00;;;8.70;80.70;;;;;;4970338;28;20050;-62
2023/04/13 07:51:25;;;;;;;0.10;0.10;;;8.70;80.70;;;;;;4970174;28;20475;-63
2023/04/13 07:53:51;;;;;;;0.20;0.20;;;8.80;81.00;;;;;;4969973;28;20385;-62
2023/04/13 07:56:17;;;;;;;0.00;0.00;;;8.80;81.40;;;;;;4971373;28;20090;-63
2023/04/13 07:58:43;;;;;;;0.00;0.00;;;8.80;81.90;;;;;;4968148;28;20058;-62
2023/04/13 08:01:09;;;;;;;0.00;0.00;;;8.80;82.20;;;;;;4970589;28;20506;-62
2023/04/13 08:03:35;;;;;;;0.00;0.00;;;8.70;82.20;;;;;;4970574;28;20054;-62
2023/04/13 08:06:05;;;;;;;0.00;0.00;;;8.70;82.40;;;;;;4972598;28;20042;-62
2023/04/13 08:08:32;;;;;;;0.00;0.00;;;8.60;82.60;;;;;;4969463;28;20034;-62
2023/04/13 08:10:58;;;;;;;0.00;0.00;;;8.70;82.90;;;;;;4970431;28;20074;-63
2023/04/13 08:13:23;;;;;;;0.00;0.00;;;8.90;83.30;;;;;;4959323;28;20082;-62
2023/04/13 08:15:49;;;;;;;0.00;0.00;;;9.10;83.00;;;;;;4966668;28;20050;-63
2023/04/13 08:18:14;;;;;;;0.00;0.00;;;9.20;82.80;;;;;;4970018;28;20483;-62
2023/04/13 08:20:40;;;;;;;0.00;0.00;;;9.20;81.90;;;;;;4971044;28;20067;-62
2023/04/13 08:23:05;;;;;;;0.00;0.00;;;9.20;82.00;;;;;;4970384;28;20047;-62
2023/04/13 08:25:31;;;;;;;0.00;0.00;;;9.30;81.90;;;;;;4970765;28;20039;-62
2023/04/13 08:27:57;;;;;;;0.00;0.00;;;9.40;81.50;;;;;;4970607;28;20062;-63
2023/04/13 08:30:22;;;;;;;0.00;0.00;;;9.30;80.80;;;;;;4970711;28;20046;-63
2023/04/13 08:32:48;;;;;;;0.00;0.00;;;9.20;81.00;;;;;;4968090;28;20039;-63
2023/04/13 08:35:14;;;;;;;1.05;1.00;;;9.20;81.00;;;;;;4970054;28;20496;-62
2023/04/13 08:37:40;;;;;;;0.00;0.00;;;9.20;81.50;;;;;;4970783;28;20125;-62
2023/04/13 08:40:10;;;;;;;0.00;0.00;;;9.20;81.80;;;;;;4968467;28;20117;-64
2023/04/13 08:42:36;;;;;;;0.00;0.00;;;9.10;82.90;;;;;;4969836;28;20050;-64
2023/04/13 08:45:02;;;;;;;0.00;0.00;;;9.20;83.70;;;;;;4968504;28;20055;-65
2023/04/13 08:47:28;;;;;;;0.00;0.00;;;8.80;81.40;;;;;;4969898;28;20039;-65
2023/04/13 08:50:00;;;;;;;0.00;0.00;;;8.30;80.90;;;;;;4970539;28;20043;-65
2023/04/13 08:52:27;;;;;;;0.00;0.00;;;8.20;82.50;;;;;;4970352;28;20551;-65
2023/04/13 08:54:55;;;;;;;0.03;0.03;;;8.10;84.00;;;;;;4969407;28;20499;-64
2023/04/13 08:57:21;;;;;;;0.00;0.00;;;8.10;85.90;;;;;;4974753;28;20035;-65
2023/04/13 08:59:51;;;;;;;0.00;0.00;;;8.20;86.10;;;;;;4968801;28;20139;-64
2023/04/13 09:02:27;;;;;;;0.00;0.00;;;8.30;86.20;;;;;;4959851;28;20053;-65
2023/04/13 09:04:56;;;;;;;0.00;0.00;;;8.30;86.80;;;;;;4968963;28;20048;-65
2023/04/13 09:07:28;;;;;;;0.00;0.00;;;8.30;86.40;;;;;;4963171;28;20059;-64
2023/04/13 09:09:58;;;;;;;0.00;0.00;;;8.20;85.90;;;;;;4969835;28;20070;-64
2023/04/13 09:12:28;;;;;;;0.00;0.00;;;8.20;85.60;;;;;;4959462;28;20050;-64
2023/04/13 09:14:54;;;;;;;0.00;0.00;;;8.20;85.70;;;;;;4970250;28;20038;-64
2023/04/13 09:17:27;;;;;;;0.00;0.00;;;8.20;86.00;;;;;;4967707;28;20058;-64
2023/04/13 09:19:54;;;;;;;0.00;0.00;;;8.10;85.60;;;;;;4970440;28;20436;-64
2023/04/13 09:22:20;;;;;;;0.00;0.00;;;8.20;85.10;;;;;;4969859;28;20043;-65
2023/04/13 09:24:47;;;;;;;0.00;0.00;;;8.10;84.90;;;;;;4970544;28;20114;-64
2023/04/13 09:27:23;;;;;;;0.20;0.20;;;8.10;84.90;;;;;;4969674;28;20177;-64
2023/04/13 09:29:54;;;;;;;0.00;0.00;;;8.00;84.60;;;;;;4968884;28;20043;-65
2023/04/13 09:32:23;;;;;;;0.00;0.00;;;8.00;85.20;;;;;;4965120;28;20035;-65
2023/04/13 09:35:02;;;;;;;0.00;0.00;;;8.00;85.10;;;;;;4969494;28;20399;-66
2023/04/13 09:37:29;;;;;;;0.00;0.00;;;8.00;84.80;;;;;;4968007;28;20508;-67
2023/04/13 09:39:55;;;;;;;0.08;0.08;;;8.00;85.60;;;;;;4968121;28;20063;-66
2023/04/13 09:42:21;;;;;;;0.00;0.00;;;7.90;86.20;;;;;;4967342;28;20051;-66
2023/04/13 09:44:56;;;;;;;0.00;0.00;;;8.00;86.10;;;;;;4966287;28;20077;-66
2023/04/13 09:47:22;;;;;;;0.00;0.00;;;7.90;86.00;;;;;;4976422;28;20062;-66
2023/04/13 09:49:48;;;;;;;0.00;0.00;;;7.90;86.50;;;;;;4968135;28;20046;-66
2023/04/13 09:52:21;;;;;;;0.00;0.00;;;8.10;86.40;;;;;;4969406;28;20034;-66
2023/04/13 09:54:54;;;;;;;0.00;0.00;;;8.40;85.90;;;;;;4969055;28;20101;-65
2023/04/13 09:57:27;;;;;;;1.08;1.00;;;8.60;85.90;;;;;;4957739;28;20031;-68
2023/04/13 09:59:53;;;;;;;0.00;0.00;;;8.70;85.70;;;;;;4966178;28;20062;-64
2023/04/13 10:02:21;;;;;;;0.20;0.20;;;8.90;85.50;;;;;;4964835;28;20055;-67
2023/04/13 10:04:46;;;;;;;0.00;0.00;;;8.90;84.70;;;;;;4967989;28;20053;-65
2023/04/13 10:07:12;;;;;;;0.20;0.20;;;9.10;83.90;;;;;;4968649;28;20046;-66
2023/04/13 10:09:38;;;;;;;0.00;0.00;;;9.30;83.60;;;;;;4967302;28;20046;-66
2023/04/13 10:12:08;;;;;;;0.00;0.00;;;9.30;83.20;;;;;;4976393;28;20615;-66
2023/04/13 10:14:36;;;;;;;0.00;0.00;;;9.40;84.70;;;;;;4968422;28;20038;-67
2023/04/13 10:17:30;;;;;;;0.00;0.00;;;9.40;84.00;;;;;;4967790;28;20142;-66
2023/04/13 10:20:00;;;;;;;0.00;0.00;;;9.40;82.90;;;;;;4970690;28;20054;-66
2023/04/13 10:22:28;;;;;;;0.00;0.00;;;9.30;83.00;;;;;;4959571;28;20049;-66
2023/04/13 10:24:53;;;;;;;0.00;0.00;;;9.30;83.20;;;;;;4967504;28;20046;-66
2023/04/13 10:27:21;;;;;;;0.00;0.00;;;9.40;82.90;;;;;;4967331;28;20440;-66
2023/04/13 10:29:47;;;;;;;0.00;0.00;;;9.20;81.70;;;;;;4967807;28;20034;-66
2023/04/13 10:32:23;;;;;;;0.00;0.00;;;9.10;82.40;;;;;;4967342;28;20058;-66
2023/04/13 10:34:50;;;;;;;0.00;0.00;;;9.20;82.20;;;;;;4966608;28;20074;-66
2023/04/13 10:37:21;;;;;;;0.00;0.00;;;9.10;82.00;;;;;;4965849;28;20085;-66
2023/04/13 10:39:47;;;;;;;;;;;9.00;82.60;;;;;;4968665;28;20053;-66
2023/04/13 10:42:13;;;;;;;0.00;0.00;;;8.90;83.00;;;;;;4967703;28;20005;-66
2023/04/13 10:44:44;;;;;;;0.22;0.22;;;8.70;83.70;;;;;;4965142;28;20507;-66
2023/04/13 10:47:11;;;;;;;0.00;0.00;;;8.90;84.60;;;;;;4967161;28;20153;-66
2023/04/13 10:49:37;;;;;;;2.75;1.85;;;9.00;85.30;;;;;;4966924;28;20069;-66
2023/04/13 10:52:03;;;;;;;0.00;0.00;;;9.10;85.70;;;;;;4967575;28;20460;-66
2023/04/13 10:54:30;;;;;;;0.00;0.00;;;9.20;85.40;;;;;;4962987;28;20142;-66
2023/04/13 10:57:01;;;;;;;0.00;0.00;;;9.20;85.00;;;;;;4965738;28;20134;-66
2023/04/13 10:59:41;;;;;;;0.00;0.00;;;9.30;85.00;;;;;;4972205;28;20062;-66
2023/04/13 11:02:15;;;;;;;0.03;0.03;;;9.20;84.80;;;;;;4966458;28;20062;-66
2023/04/13 11:04:43;;;;;;;0.22;0.22;;;9.40;84.30;;;;;;4966185;28;20761;-65
2023/04/13 11:07:16;;;;;;;0.00;0.00;;;9.30;82.00;;;;;;4964854;28;20042;-66
2023/04/13 11:09:44;;;;;;;0.00;0.00;;;9.50;82.00;;;;;;4970932;28;20050;-65
2023/04/13 11:12:17;;;;;;;0.03;0.03;;;9.60;81.20;;;;;;4966131;28;20702;-66
2023/04/13 11:14:46;;;;;;;0.00;0.00;;;9.70;80.90;;;;;;4967194;28;20117;-66
2023/04/13 11:17:17;;;;;;;0.00;0.00;;;9.70;80.10;;;;;;4967146;28;20108;-66
2023/04/13 11:19:47;;;;;;;0.00;0.00;;;9.80;80.60;;;;;;4954069;28;20043;-66
2023/04/13 11:22:17;;;;;;;0.00;0.00;;;10.00;80.40;;;;;;4966296;28;20106;-66
2023/04/13 11:24:43;;;;;;;0.00;0.00;;;10.00;78.00;;;;;;4966758;28;20046;-67
2023/04/13 11:27:26;;;;;;;0.13;0.13;;;10.00;77.60;;;;;;4967215;28;20066;-66
2023/04/13 11:30:04;;;;;;;;;;;10.00;78.50;;;;;;4966788;28;20039;-65
2023/04/13 11:32:32;;;;;;;0.08;0.08;;;10.10;79.30;;;;;;4962843;28;19922;-66
2023/04/13 11:35:24;;;;;;;0.00;0.00;;;10.20;79.00;;;;;;4966538;28;20043;-66
2023/04/13 11:37:52;;;;;;;0.00;0.00;;;10.10;78.40;;;;;;4953376;28;20065;-66
2023/04/13 11:40:26;;;;;;;0.10;0.10;;;10.10;78.00;;;;;;4966255;28;20049;-66
2023/04/13 11:42:58;;;;;;;0.00;0.00;;;10.00;76.30;;;;;;4967003;28;20101;-66
2023/04/13 11:45:28;;;;;;;3.42;2.55;;;9.90;76.80;;;;;;4965743;28;20038;-66
2023/04/13 11:47:56;;;;;;;0.00;0.00;;;9.90;77.30;;;;;;4963711;28;20190;-65
2023/04/13 11:50:22;;;;;;;0.00;0.00;;;10.00;77.80;;;;;;4966695;28;20448;-65
2023/04/13 11:52:51;;;;;;;0.03;0.03;;;10.00;77.40;;;;;;4966957;28;20042;-65
2023/04/13 11:55:18;;;;;;;0.20;0.20;;;10.00;76.90;;;;;;4964221;28;20772;-67
2023/04/13 11:57:44;;;;;;;0.00;0.00;;;10.10;77.70;;;;;;4965997;28;20530;-64
2023/04/13 12:00:17;;;;;;;0.00;0.00;;;10.20;77.20;;;;;;4966633;28;20416;-64
2023/04/13 12:02:44;;;;;;;0.03;0.03;;;10.20;75.70;;;;;;4967744;28;20043;-65
2023/04/13 12:05:23;;;;;;;0.82;0.80;;;10.20;75.50;;;;;;4966842;28;20492;-65
2023/04/13 12:07:52;;;;;;;0.00;0.00;;;10.10;75.70;;;;;;4969515;28;20050;-64
2023/04/13 12:10:22;;;;;;;0.00;0.00;;;10.10;76.90;;;;;;4970020;28;20066;-64
2023/04/13 12:12:59;;;;;;;0.17;0.17;;;10.10;76.30;;;;;;4969471;28;20046;-64
2023/04/13 12:15:29;;;;;;;0.03;0.03;;;10.10;76.60;;;;;;4969845;28;21307;-64
2023/04/13 12:18:00;;;;;;;1.02;1.02;;;10.10;75.70;;;;;;4969887;28;20381;-64
2023/04/13 12:20:34;;;;;;;0.22;0.22;;;10.00;75.50;;;;;;4970555;28;20423;-65
2023/04/13 12:23:00;;;;;;;0.00;0.00;;;10.00;75.30;;;;;;4969434;28;20043;-65
2023/04/13 12:25:26;;;;;;;0.00;0.00;;;10.00;75.00;;;;;;4970301;28;20050;-64
2023/04/13 12:27:52;;;;;;;0.00;0.00;;;9.90;75.40;;;;;;4958372;28;20399;-65
2023/04/13 12:30:19;;;;;;;0.20;0.20;;;10.00;75.30;;;;;;4970351;28;20046;-65
2023/04/13 12:32:51;;;;;;;0.00;0.00;;;10.00;75.40;;;;;;4968666;28;20066;-64
2023/04/13 12:35:18;;;;;;;0.00;0.00;;;10.10;75.20;;;;;;4970250;28;20635;-64
2023/04/13 12:37:45;;;;;;;0.00;0.00;;;10.10;74.40;;;;;;4960509;28;20039;-64
2023/04/13 12:40:14;;;;;;;0.40;0.40;;;10.00;75.30;;;;;;4963556;28;20106;-64
2023/04/13 12:42:44;;;;;;;0.00;0.00;;;10.10;74.80;;;;;;4977815;28;20165;-65
2023/04/13 12:45:10;;;;;;;0.10;0.10;;;10.20;74.20;;;;;;4967363;28;20039;-65
2023/04/13 12:47:36;;;;;;;0.00;0.00;;;10.30;74.30;;;;;;4970312;28;20047;-65
2023/04/13 12:50:06;;;;;;;0.00;0.00;;;10.20;73.40;;;;;;4967567;28;20130;-63
2023/04/13 12:52:33;;;;;;;0.00;0.00;;;10.30;74.50;;;;;;4968287;28;21189;-65
2023/04/13 12:54:59;;;;;;;0.82;0.73;;;10.30;74.70;;;;;;4968526;28;20042;-64
2023/04/13 12:57:26;;;;;;;0.00;0.00;;;10.20;74.90;;;;;;4969738;28;20043;-64
2023/04/13 12:59:52;;;;;;;0.10;0.10;;;10.10;74.70;;;;;;4969598;28;20149;-64